sensor_id;sensor_type;location;lat;lon;timestamp;pressure;altitude;pressure_sealevel;temperature;humidity
70338;BME280;57757;53.198;19.646;2023-01-29T00:02:04;100954.37;;;-1.73;70.32
70338;BME280;57757;53.198;19.646;2023-01-29T00:04:32;100956.47;;;-1.76;70.29
70338;BME280;57757;53.198;19.646;2023-01-29T00:07:00;100957.46;;;-1.81;70.29
70338;BME280;57757;53.198;19.646;2023-01-29T00:09:28;100954.23;;;-1.85;70.23
70338;BME280;57757;53.198;19.646;2023-01-29T00:11:56;100957.56;;;-1.88;70.32
70338;BME280;57757;53.198;19.646;2023-01-29T00:14:23;100953.52;;;-1.91;70.35
70338;BME280;57757;53.198;19.646;2023-01-29T00:16:53;100949.48;;;-1.94;70.35
70338;BME280;57757;53.198;19.646;2023-01-29T00:19:21;100946.17;;;-1.96;70.44
70338;BME280;57757;53.198;19.646;2023-01-29T00:21:49;100947.88;;;-1.96;70.52
70338;BME280;57757;53.198;19.646;2023-01-29T00:24:17;100947.30;;;-1.93;70.61
70338;BME280;57757;53.198;19.646;2023-01-29T00:26:44;100950.80;;;-1.90;70.66
70338;BME280;57757;53.198;19.646;2023-01-29T00:29:12;100950.75;;;-1.87;70.67
70338;BME280;57757;53.198;19.646;2023-01-29T00:31:43;100941.02;;;-1.83;70.76
70338;BME280;57757;53.198;19.646;2023-01-29T00:34:11;100934.91;;;-1.78;70.71
70338;BME280;57757;53.198;19.646;2023-01-29T00:36:39;100933.04;;;-1.74;70.77
70338;BME280;57757;53.198;19.646;2023-01-29T00:39:07;100928.83;;;-1.68;70.83
70338;BME280;57757;53.198;19.646;2023-01-29T00:41:37;100924.25;;;-1.62;70.92
70338;BME280;57757;53.198;19.646;2023-01-29T00:44:21;100922.75;;;-1.57;70.90
70338;BME280;57757;53.198;19.646;2023-01-29T00:47:05;100925.20;;;-1.51;70.88
70338;BME280;57757;53.198;19.646;2023-01-29T00:49:53;100925.33;;;-1.47;70.85
70338;BME280;57757;53.198;19.646;2023-01-29T00:52:22;100922.70;;;-1.44;70.87
70338;BME280;57757;53.198;19.646;2023-01-29T00:54:58;100924.07;;;-1.39;70.94
70338;BME280;57757;53.198;19.646;2023-01-29T00:57:28;100917.77;;;-1.34;70.97
70338;BME280;57757;53.198;19.646;2023-01-29T00:59:56;100923.22;;;-1.30;70.94
70338;BME280;57757;53.198;19.646;2023-01-29T01:02:25;100926.55;;;-1.28;70.85
70338;BME280;57757;53.198;19.646;2023-01-29T01:05:10;100934.77;;;-1.27;70.82
70338;BME280;57757;53.198;19.646;2023-01-29T01:07:40;100938.74;;;-1.25;70.81
70338;BME280;57757;53.198;19.646;2023-01-29T01:10:14;100936.92;;;-1.24;70.86
70338;BME280;57757;53.198;19.646;2023-01-29T01:12:56;100938.50;;;-1.23;70.91
70338;BME280;57757;53.198;19.646;2023-01-29T01:15:30;100941.07;;;-1.23;70.82
70338;BME280;57757;53.198;19.646;2023-01-29T01:18:00;100938.51;;;-1.22;70.80
70338;BME280;57757;53.198;19.646;2023-01-29T01:20:30;100935.66;;;-1.21;70.87
70338;BME280;57757;53.198;19.646;2023-01-29T01:22:58;100935.60;;;-1.18;70.87
70338;BME280;57757;53.198;19.646;2023-01-29T01:25:26;100936.17;;;-1.16;70.93
70338;BME280;57757;53.198;19.646;2023-01-29T01:27:59;100942.17;;;-1.16;70.81
70338;BME280;57757;53.198;19.646;2023-01-29T01:30:26;100938.97;;;-1.14;70.89
70338;BME280;57757;53.198;19.646;2023-01-29T01:32:54;100933.95;;;-1.12;70.94
70338;BME280;57757;53.198;19.646;2023-01-29T01:35:22;100937.22;;;-1.11;70.88
70338;BME280;57757;53.198;19.646;2023-01-29T01:37:49;100934.95;;;-1.12;70.74
70338;BME280;57757;53.198;19.646;2023-01-29T01:40:21;100930.23;;;-1.15;70.86
70338;BME280;57757;53.198;19.646;2023-01-29T01:42:51;100923.42;;;-1.15;70.94
70338;BME280;57757;53.198;19.646;2023-01-29T01:51:18;100906.77;;;-1.08;70.95
70338;BME280;57757;53.198;19.646;2023-01-29T01:53:27;100909.05;;;-1.06;71.06
70338;BME280;57757;53.198;19.646;2023-01-29T01:56:09;100912.35;;;-1.05;70.98
70338;BME280;57757;53.198;19.646;2023-01-29T01:58:45;100918.38;;;-1.03;70.98
70338;BME280;57757;53.198;19.646;2023-01-29T02:01:17;100915.75;;;-1.00;71.14
70338;BME280;57757;53.198;19.646;2023-01-29T02:03:55;100920.08;;;-0.98;70.96
70338;BME280;57757;53.198;19.646;2023-01-29T02:06:40;100919.42;;;-0.98;70.99
70338;BME280;57757;53.198;19.646;2023-01-29T02:09:30;100911.38;;;-0.98;70.87
70338;BME280;57757;53.198;19.646;2023-01-29T02:12:07;100906.90;;;-0.99;70.91
70338;BME280;57757;53.198;19.646;2023-01-29T02:14:38;100904.04;;;-1.03;70.84
70338;BME280;57757;53.198;19.646;2023-01-29T02:17:12;100906.39;;;-1.04;70.88
70338;BME280;57757;53.198;19.646;2023-01-29T02:19:47;100906.05;;;-1.05;70.87
70338;BME280;57757;53.198;19.646;2023-01-29T02:30:33;100887.23;;;-1.05;71.07
70338;BME280;57757;53.198;19.646;2023-01-29T02:35:45;100903.54;;;-1.03;71.07
70338;BME280;57757;53.198;19.646;2023-01-29T02:43:44;100872.14;;;-1.02;71.08
70338;BME280;57757;53.198;19.646;2023-01-29T02:49:19;100870.74;;;-1.03;71.00
70338;BME280;57757;53.198;19.646;2023-01-29T02:51:57;100875.44;;;-1.01;71.10
70338;BME280;57757;53.198;19.646;2023-01-29T02:54:42;100872.54;;;-1.01;71.06
70338;BME280;57757;53.198;19.646;2023-01-29T02:57:31;100864.53;;;-1.00;71.07
70338;BME280;57757;53.198;19.646;2023-01-29T03:00:06;100857.50;;;-1.01;71.04
70338;BME280;57757;53.198;19.646;2023-01-29T03:08:14;100846.29;;;-1.05;71.10
70338;BME280;57757;53.198;19.646;2023-01-29T03:10:55;100836.23;;;-1.05;71.11
70338;BME280;57757;53.198;19.646;2023-01-29T03:16:51;100842.98;;;-1.06;71.07
70338;BME280;57757;53.198;19.646;2023-01-29T03:19:37;100844.54;;;-1.06;71.09
70338;BME280;57757;53.198;19.646;2023-01-29T03:22:09;100846.61;;;-1.05;71.09
70338;BME280;57757;53.198;19.646;2023-01-29T03:24:47;100830.27;;;-1.04;71.15
70338;BME280;57757;53.198;19.646;2023-01-29T03:27:37;100827.04;;;-1.03;71.21
70338;BME280;57757;53.198;19.646;2023-01-29T03:30:24;100824.14;;;-1.03;71.21
70338;BME280;57757;53.198;19.646;2023-01-29T03:33:13;100827.74;;;-1.02;71.14
70338;BME280;57757;53.198;19.646;2023-01-29T03:35:49;100821.28;;;-1.02;71.21
70338;BME280;57757;53.198;19.646;2023-01-29T03:38:19;100814.85;;;-1.00;71.17
70338;BME280;57757;53.198;19.646;2023-01-29T03:41:20;100804.79;;;-1.00;71.17
70338;BME280;57757;53.198;19.646;2023-01-29T03:44:08;100799.84;;;-1.00;71.22
70338;BME280;57757;53.198;19.646;2023-01-29T03:46:51;100793.01;;;-1.00;71.17
70338;BME280;57757;53.198;19.646;2023-01-29T03:49:37;100785.48;;;-1.00;71.30
70338;BME280;57757;53.198;19.646;2023-01-29T03:52:28;100786.37;;;-0.99;71.31
70338;BME280;57757;53.198;19.646;2023-01-29T03:55:08;100774.11;;;-0.98;71.20
70338;BME280;57757;53.198;19.646;2023-01-29T04:00:30;100773.17;;;-0.96;71.18
70338;BME280;57757;53.198;19.646;2023-01-29T04:05:46;100779.95;;;-0.97;71.19
70338;BME280;57757;53.198;19.646;2023-01-29T04:08:21;100777.55;;;-0.98;71.17
70338;BME280;57757;53.198;19.646;2023-01-29T04:10:53;100777.98;;;-1.00;71.28
70338;BME280;57757;53.198;19.646;2023-01-29T04:13:23;100777.54;;;-1.03;71.33
70338;BME280;57757;53.198;19.646;2023-01-29T04:15:55;100774.06;;;-1.05;71.40
70338;BME280;57757;53.198;19.646;2023-01-29T04:18:24;100775.50;;;-1.08;71.59
70338;BME280;57757;53.198;19.646;2023-01-29T04:20:52;100778.20;;;-1.09;71.58
70338;BME280;57757;53.198;19.646;2023-01-29T04:23:23;100773.86;;;-1.12;71.62
70338;BME280;57757;53.198;19.646;2023-01-29T04:32:05;100769.13;;;-1.10;71.74
70338;BME280;57757;53.198;19.646;2023-01-29T04:34:50;100769.13;;;-1.10;71.76
70338;BME280;57757;53.198;19.646;2023-01-29T04:37:40;100766.64;;;-1.08;71.85
70338;BME280;57757;53.198;19.646;2023-01-29T04:40:29;100756.29;;;-1.06;71.74
70338;BME280;57757;53.198;19.646;2023-01-29T04:47:02;100753.02;;;-1.02;71.80
70338;BME280;57757;53.198;19.646;2023-01-29T04:49:17;100750.48;;;-1.01;71.74
70338;BME280;57757;53.198;19.646;2023-01-29T04:57:25;100746.04;;;-1.01;71.87
70338;BME280;57757;53.198;19.646;2023-01-29T05:00:02;100742.40;;;-1.02;71.88
70338;BME280;57757;53.198;19.646;2023-01-29T05:02:37;100742.16;;;-1.05;71.84
70338;BME280;57757;53.198;19.646;2023-01-29T05:05:07;100742.75;;;-1.07;72.15
70338;BME280;57757;53.198;19.646;2023-01-29T05:07:37;100740.77;;;-1.11;72.11
70338;BME280;57757;53.198;19.646;2023-01-29T05:10:07;100731.41;;;-1.15;72.18
70338;BME280;57757;53.198;19.646;2023-01-29T05:12:37;100727.17;;;-1.19;72.17
70338;BME280;57757;53.198;19.646;2023-01-29T05:15:13;100730.89;;;-1.20;72.28
70338;BME280;57757;53.198;19.646;2023-01-29T05:17:42;100729.27;;;-1.23;72.30
70338;BME280;57757;53.198;19.646;2023-01-29T05:20:10;100728.83;;;-1.26;72.32
70338;BME280;57757;53.198;19.646;2023-01-29T05:22:40;100730.44;;;-1.29;72.44
70338;BME280;57757;53.198;19.646;2023-01-29T05:25:20;100733.21;;;-1.33;72.47
70338;BME280;57757;53.198;19.646;2023-01-29T05:27:50;100735.16;;;-1.36;72.67
70338;BME280;57757;53.198;19.646;2023-01-29T05:30:36;100746.41;;;-1.36;72.73
70338;BME280;57757;53.198;19.646;2023-01-29T05:33:13;100743.27;;;-1.38;72.67
70338;BME280;57757;53.198;19.646;2023-01-29T05:35:41;100735.69;;;-1.40;72.77
70338;BME280;57757;53.198;19.646;2023-01-29T05:38:09;100726.08;;;-1.42;72.90
70338;BME280;57757;53.198;19.646;2023-01-29T05:40:37;100724.15;;;-1.44;72.83
70338;BME280;57757;53.198;19.646;2023-01-29T05:43:05;100722.21;;;-1.46;72.99
70338;BME280;57757;53.198;19.646;2023-01-29T05:45:38;100717.61;;;-1.46;73.11
70338;BME280;57757;53.198;19.646;2023-01-29T05:48:05;100718.15;;;-1.45;73.17
70338;BME280;57757;53.198;19.646;2023-01-29T05:50:33;100711.31;;;-1.45;73.23
70338;BME280;57757;53.198;19.646;2023-01-29T05:53:01;100717.92;;;-1.47;73.13
70338;BME280;57757;53.198;19.646;2023-01-29T05:55:29;100721.96;;;-1.48;73.24
70338;BME280;57757;53.198;19.646;2023-01-29T05:57:56;100724.00;;;-1.48;73.31
70338;BME280;57757;53.198;19.646;2023-01-29T06:00:24;100732.42;;;-1.46;73.52
70338;BME280;57757;53.198;19.646;2023-01-29T06:02:52;100739.08;;;-1.46;73.35
70338;BME280;57757;53.198;19.646;2023-01-29T06:05:20;100745.05;;;-1.46;73.53
70338;BME280;57757;53.198;19.646;2023-01-29T06:07:47;100748.80;;;-1.47;73.47
70338;BME280;57757;53.198;19.646;2023-01-29T06:10:16;100743.27;;;-1.49;73.47
70338;BME280;57757;53.198;19.646;2023-01-29T06:12:45;100740.16;;;-1.50;73.61
70338;BME280;57757;53.198;19.646;2023-01-29T06:15:13;100738.98;;;-1.50;73.57
70338;BME280;57757;53.198;19.646;2023-01-29T06:17:46;100742.73;;;-1.50;73.64
70338;BME280;57757;53.198;19.646;2023-01-29T06:20:13;100738.81;;;-1.50;73.70
70338;BME280;57757;53.198;19.646;2023-01-29T06:22:42;100743.58;;;-1.49;73.68
70338;BME280;57757;53.198;19.646;2023-01-29T06:25:09;100741.40;;;-1.49;73.64
70338;BME280;57757;53.198;19.646;2023-01-29T06:27:37;100734.95;;;-1.48;73.78
70338;BME280;57757;53.198;19.646;2023-01-29T06:30:06;100742.16;;;-1.46;73.74
70338;BME280;57757;53.198;19.646;2023-01-29T06:32:34;100746.63;;;-1.45;73.84
70338;BME280;57757;53.198;19.646;2023-01-29T06:35:02;100747.48;;;-1.45;73.76
70338;BME280;57757;53.198;19.646;2023-01-29T06:37:30;100749.45;;;-1.42;73.90
70338;BME280;57757;53.198;19.646;2023-01-29T06:39:58;100744.06;;;-1.40;73.94
70338;BME280;57757;53.198;19.646;2023-01-29T06:42:25;100743.95;;;-1.38;73.91
70338;BME280;57757;53.198;19.646;2023-01-29T06:44:55;100738.15;;;-1.38;73.93
70338;BME280;57757;53.198;19.646;2023-01-29T06:47:23;100739.35;;;-1.38;73.89
70338;BME280;57757;53.198;19.646;2023-01-29T06:49:51;100746.83;;;-1.39;73.83
70338;BME280;57757;53.198;19.646;2023-01-29T06:52:18;100746.33;;;-1.39;73.92
70338;BME280;57757;53.198;19.646;2023-01-29T06:54:46;100750.39;;;-1.39;73.86
70338;BME280;57757;53.198;19.646;2023-01-29T06:57:14;100745.45;;;-1.39;73.97
70338;BME280;57757;53.198;19.646;2023-01-29T06:59:42;100738.50;;;-1.38;73.97
70338;BME280;57757;53.198;19.646;2023-01-29T07:02:09;100741.23;;;-1.38;73.97
70338;BME280;57757;53.198;19.646;2023-01-29T07:04:37;100745.52;;;-1.37;74.01
70338;BME280;57757;53.198;19.646;2023-01-29T07:07:05;100744.84;;;-1.37;74.02
70338;BME280;57757;53.198;19.646;2023-01-29T07:09:40;100743.88;;;-1.35;74.06
70338;BME280;57757;53.198;19.646;2023-01-29T07:12:09;100741.75;;;-1.32;74.17
70338;BME280;57757;53.198;19.646;2023-01-29T07:14:37;100736.05;;;-1.30;74.11
70338;BME280;57757;53.198;19.646;2023-01-29T07:17:04;100733.89;;;-1.28;74.14
70338;BME280;57757;53.198;19.646;2023-01-29T07:19:32;100728.69;;;-1.25;74.10
70338;BME280;57757;53.198;19.646;2023-01-29T07:22:00;100730.48;;;-1.22;74.22
70338;BME280;57757;53.198;19.646;2023-01-29T07:24:29;100731.02;;;-1.21;74.14
70338;BME280;57757;53.198;19.646;2023-01-29T07:26:57;100727.30;;;-1.21;74.14
70338;BME280;57757;53.198;19.646;2023-01-29T07:29:25;100719.98;;;-1.20;74.14
70338;BME280;57757;53.198;19.646;2023-01-29T07:31:52;100721.51;;;-1.20;74.05
70338;BME280;57757;53.198;19.646;2023-01-29T07:34:20;100710.25;;;-1.20;74.12
70338;BME280;57757;53.198;19.646;2023-01-29T07:36:48;100704.60;;;-1.21;74.20
70338;BME280;57757;53.198;19.646;2023-01-29T07:39:18;100704.66;;;-1.19;74.24
70338;BME280;57757;53.198;19.646;2023-01-29T07:41:46;100705.21;;;-1.17;74.26
70338;BME280;57757;53.198;19.646;2023-01-29T07:44:14;100711.29;;;-1.14;74.35
70338;BME280;57757;53.198;19.646;2023-01-29T07:46:42;100704.45;;;-1.14;74.20
70338;BME280;57757;53.198;19.646;2023-01-29T07:49:10;100703.95;;;-1.14;74.24
70338;BME280;57757;53.198;19.646;2023-01-29T07:51:37;100701.30;;;-1.12;74.38
70338;BME280;57757;53.198;19.646;2023-01-29T07:54:05;100700.69;;;-1.10;74.36
70338;BME280;57757;53.198;19.646;2023-01-29T07:56:33;100697.00;;;-1.08;74.39
70338;BME280;57757;53.198;19.646;2023-01-29T07:59:00;100690.36;;;-1.07;74.42
70338;BME280;57757;53.198;19.646;2023-01-29T08:01:28;100689.92;;;-1.05;74.39
70338;BME280;57757;53.198;19.646;2023-01-29T08:03:56;100695.44;;;-1.03;74.34
70338;BME280;57757;53.198;19.646;2023-01-29T08:06:24;100693.48;;;-1.00;74.44
70338;BME280;57757;53.198;19.646;2023-01-29T08:08:51;100687.14;;;-0.95;74.40
70338;BME280;57757;53.198;19.646;2023-01-29T08:11:19;100685.70;;;-0.92;74.33
70338;BME280;57757;53.198;19.646;2023-01-29T08:13:47;100684.67;;;-0.92;74.33
70338;BME280;57757;53.198;19.646;2023-01-29T08:16:15;100686.33;;;-0.88;74.41
70338;BME280;57757;53.198;19.646;2023-01-29T08:18:43;100683.73;;;-0.84;74.43
70338;BME280;57757;53.198;19.646;2023-01-29T08:21:14;100679.05;;;-0.81;74.48
70338;BME280;57757;53.198;19.646;2023-01-29T08:23:42;100677.27;;;-0.78;74.45
70338;BME280;57757;53.198;19.646;2023-01-29T08:26:10;100679.59;;;-0.74;74.57
70338;BME280;57757;53.198;19.646;2023-01-29T08:28:37;100675.02;;;-0.73;74.38
70338;BME280;57757;53.198;19.646;2023-01-29T08:31:14;100670.29;;;-0.71;74.55
70338;BME280;57757;53.198;19.646;2023-01-29T08:33:42;100661.91;;;-0.71;74.31
70338;BME280;57757;53.198;19.646;2023-01-29T08:36:10;100665.39;;;-0.69;74.47
70338;BME280;57757;53.198;19.646;2023-01-29T08:38:39;100663.82;;;-0.65;74.58
70338;BME280;57757;53.198;19.646;2023-01-29T08:41:07;100661.44;;;-0.58;74.61
70338;BME280;57757;53.198;19.646;2023-01-29T08:43:35;100653.98;;;-0.51;74.66
70338;BME280;57757;53.198;19.646;2023-01-29T08:46:07;100653.04;;;-0.41;74.60
70338;BME280;57757;53.198;19.646;2023-01-29T08:48:35;100645.73;;;-0.33;74.72
70338;BME280;57757;53.198;19.646;2023-01-29T08:51:03;100648.97;;;-0.28;74.48
70338;BME280;57757;53.198;19.646;2023-01-29T08:53:31;100643.26;;;-0.24;74.58
70338;BME280;57757;53.198;19.646;2023-01-29T08:55:59;100637.58;;;-0.19;74.44
70338;BME280;57757;53.198;19.646;2023-01-29T08:58:28;100636.18;;;-0.14;74.47
70338;BME280;57757;53.198;19.646;2023-01-29T09:00:55;100632.06;;;-0.09;74.62
70338;BME280;57757;53.198;19.646;2023-01-29T09:03:23;100627.58;;;-0.03;74.42
70338;BME280;57757;53.198;19.646;2023-01-29T09:05:51;100629.65;;;-0.03;74.40
70338;BME280;57757;53.198;19.646;2023-01-29T09:08:18;100627.13;;;-0.02;74.30
70338;BME280;57757;53.198;19.646;2023-01-29T09:10:46;100628.69;;;-0.00;74.39
70338;BME280;57757;53.198;19.646;2023-01-29T09:13:13;100623.78;;;-0.05;74.26
70338;BME280;57757;53.198;19.646;2023-01-29T09:15:41;100626.30;;;-0.06;74.21
70338;BME280;57757;53.198;19.646;2023-01-29T09:18:09;100625.94;;;-0.07;74.34
70338;BME280;57757;53.198;19.646;2023-01-29T09:20:37;100629.05;;;-0.06;74.40
70338;BME280;57757;53.198;19.646;2023-01-29T09:23:06;100630.80;;;-0.05;74.33
70338;BME280;57757;53.198;19.646;2023-01-29T09:25:35;100635.87;;;-0.07;74.32
70338;BME280;57757;53.198;19.646;2023-01-29T09:28:04;100636.89;;;-0.06;74.37
70338;BME280;57757;53.198;19.646;2023-01-29T09:30:32;100638.86;;;-0.04;74.45
70338;BME280;57757;53.198;19.646;2023-01-29T09:33:05;100643.46;;;-0.05;74.28
70338;BME280;57757;53.198;19.646;2023-01-29T09:35:33;100648.52;;;-0.07;74.39
70338;BME280;57757;53.198;19.646;2023-01-29T09:38:01;100641.27;;;-0.10;74.38
70338;BME280;57757;53.198;19.646;2023-01-29T09:43:12;100638.42;;;-0.07;74.64
70338;BME280;57757;53.198;19.646;2023-01-29T09:45:49;100644.15;;;-0.05;74.63
70338;BME280;57757;53.198;19.646;2023-01-29T09:48:19;100639.98;;;-0.07;74.48
70338;BME280;57757;53.198;19.646;2023-01-29T09:50:50;100640.15;;;-0.06;74.63
70338;BME280;57757;53.198;19.646;2023-01-29T09:53:29;100628.99;;;-0.08;74.46
70338;BME280;57757;53.198;19.646;2023-01-29T09:56:03;100621.36;;;-0.12;74.42
70338;BME280;57757;53.198;19.646;2023-01-29T09:58:36;100616.54;;;-0.14;74.72
70338;BME280;57757;53.198;19.646;2023-01-29T10:01:17;100623.19;;;-0.14;74.72
70338;BME280;57757;53.198;19.646;2023-01-29T10:13:04;100614.73;;;-0.17;74.94
70338;BME280;57757;53.198;19.646;2023-01-29T10:15:34;100616.94;;;-0.18;74.76
70338;BME280;57757;53.198;19.646;2023-01-29T10:20:53;100608.55;;;-0.18;74.92
70338;BME280;57757;53.198;19.646;2023-01-29T10:23:28;100607.02;;;-0.18;74.91
70338;BME280;57757;53.198;19.646;2023-01-29T10:25:59;100610.08;;;-0.19;74.85
70338;BME280;57757;53.198;19.646;2023-01-29T10:28:44;100597.01;;;-0.22;75.00
70338;BME280;57757;53.198;19.646;2023-01-29T10:31:22;100597.55;;;-0.21;75.04
70338;BME280;57757;53.198;19.646;2023-01-29T10:33:59;100591.88;;;-0.22;75.00
70338;BME280;57757;53.198;19.646;2023-01-29T10:36:37;100588.42;;;-0.24;75.08
70338;BME280;57757;53.198;19.646;2023-01-29T10:39:17;100589.11;;;-0.23;75.22
70338;BME280;57757;53.198;19.646;2023-01-29T10:44:54;100590.27;;;-0.24;75.11
70338;BME280;57757;53.198;19.646;2023-01-29T10:55:49;100550.06;;;-0.19;75.27
70338;BME280;57757;53.198;19.646;2023-01-29T11:00:52;100543.37;;;-0.14;75.15
70338;BME280;57757;53.198;19.646;2023-01-29T11:03:29;100538.10;;;-0.13;75.28
70338;BME280;57757;53.198;19.646;2023-01-29T11:08:30;100532.38;;;-0.03;75.38
70338;BME280;57757;53.198;19.646;2023-01-29T11:11:07;100535.52;;;0.01;75.29
70338;BME280;57757;53.198;19.646;2023-01-29T11:16:42;100525.92;;;0.06;75.33
70338;BME280;57757;53.198;19.646;2023-01-29T11:19:10;100514.84;;;0.07;75.22
70338;BME280;57757;53.198;19.646;2023-01-29T11:24:18;100503.65;;;0.12;75.32
70338;BME280;57757;53.198;19.646;2023-01-29T11:26:47;100498.07;;;0.14;75.37
70338;BME280;57757;53.198;19.646;2023-01-29T11:35:03;100488.02;;;0.24;75.27
70338;BME280;57757;53.198;19.646;2023-01-29T11:37:37;100482.20;;;0.23;75.19
70338;BME280;57757;53.198;19.646;2023-01-29T11:40:33;100475.46;;;0.20;75.29
70338;BME280;57757;53.198;19.646;2023-01-29T11:46:05;100464.33;;;0.20;75.25
70338;BME280;57757;53.198;19.646;2023-01-29T11:48:47;100460.20;;;0.19;75.41
70338;BME280;57757;53.198;19.646;2023-01-29T11:51:25;100452.54;;;0.20;75.45
70338;BME280;57757;53.198;19.646;2023-01-29T11:53:57;100455.83;;;0.22;75.30
70338;BME280;57757;53.198;19.646;2023-01-29T11:56:34;100456.20;;;0.24;75.49
70338;BME280;57757;53.198;19.646;2023-01-29T11:59:24;100462.56;;;0.25;75.44
70338;BME280;57757;53.198;19.646;2023-01-29T12:01:54;100458.10;;;0.24;75.40
70338;BME280;57757;53.198;19.646;2023-01-29T12:04:25;100463.72;;;0.23;75.36
70338;BME280;57757;53.198;19.646;2023-01-29T12:06:53;100464.01;;;0.21;75.24
70338;BME280;57757;53.198;19.646;2023-01-29T12:09:26;100469.24;;;0.18;75.32
70338;BME280;57757;53.198;19.646;2023-01-29T12:12:37;100469.21;;;0.16;75.40
70338;BME280;57757;53.198;19.646;2023-01-29T12:15:04;100452.14;;;0.10;75.33
70338;BME280;57757;53.198;19.646;2023-01-29T12:17:35;100453.64;;;0.09;75.55
70338;BME280;57757;53.198;19.646;2023-01-29T12:20:10;100461.16;;;0.08;75.48
70338;BME280;57757;53.198;19.646;2023-01-29T12:22:52;100457.89;;;0.07;75.63
70338;BME280;57757;53.198;19.646;2023-01-29T12:25:43;100455.16;;;0.07;75.65
70338;BME280;57757;53.198;19.646;2023-01-29T12:33:58;100419.33;;;0.18;75.79
70338;BME280;57757;53.198;19.646;2023-01-29T12:39:15;100417.02;;;0.22;75.71
70338;BME280;57757;53.198;19.646;2023-01-29T12:41:49;100422.66;;;0.22;75.77
70338;BME280;57757;53.198;19.646;2023-01-29T12:44:32;100422.32;;;0.22;75.78
70338;BME280;57757;53.198;19.646;2023-01-29T12:47:05;100423.35;;;0.22;75.75
70338;BME280;57757;53.198;19.646;2023-01-29T12:49:38;100422.24;;;0.19;75.79
70338;BME280;57757;53.198;19.646;2023-01-29T12:54:40;100423.22;;;0.09;75.90
70338;BME280;57757;53.198;19.646;2023-01-29T12:57:40;100432.31;;;0.03;75.97
70338;BME280;57757;53.198;19.646;2023-01-29T13:00:42;100427.20;;;-0.04;76.05
70338;BME280;57757;53.198;19.646;2023-01-29T13:06:05;100447.10;;;-0.08;76.38
70338;BME280;57757;53.198;19.646;2023-01-29T13:08:40;100449.10;;;-0.10;76.24
70338;BME280;57757;53.198;19.646;2023-01-29T13:11:13;100453.30;;;-0.13;76.30
70338;BME280;57757;53.198;19.646;2023-01-29T13:13:49;100461.37;;;-0.12;76.47
70338;BME280;57757;53.198;19.646;2023-01-29T13:16:27;100464.11;;;-0.11;76.61
70338;BME280;57757;53.198;19.646;2023-01-29T13:19:21;100465.69;;;-0.10;76.51
70338;BME280;57757;53.198;19.646;2023-01-29T13:21:51;100458.52;;;-0.09;76.53
70338;BME280;57757;53.198;19.646;2023-01-29T13:24:23;100460.58;;;-0.10;76.46
70338;BME280;57757;53.198;19.646;2023-01-29T13:26:52;100449.60;;;-0.10;76.52
70338;BME280;57757;53.198;19.646;2023-01-29T13:29:21;100441.91;;;-0.10;76.60
70338;BME280;57757;53.198;19.646;2023-01-29T13:31:54;100437.27;;;-0.11;76.62
70338;BME280;57757;53.198;19.646;2023-01-29T13:36:59;100423.94;;;-0.12;76.69
70338;BME280;57757;53.198;19.646;2023-01-29T13:39:35;100412.30;;;-0.13;76.83
70338;BME280;57757;53.198;19.646;2023-01-29T13:42:20;100404.92;;;-0.13;76.74
70338;BME280;57757;53.198;19.646;2023-01-29T13:44:50;100406.26;;;-0.16;76.68
70338;BME280;57757;53.198;19.646;2023-01-29T13:47:24;100404.19;;;-0.16;76.81
70338;BME280;57757;53.198;19.646;2023-01-29T13:50:03;100406.06;;;-0.16;76.85
70338;BME280;57757;53.198;19.646;2023-01-29T13:52:40;100405.02;;;-0.17;76.91
70338;BME280;57757;53.198;19.646;2023-01-29T14:10:30;100390.27;;;-0.12;77.09
70338;BME280;57757;53.198;19.646;2023-01-29T14:16:32;100380.34;;;-0.12;77.05
70338;BME280;57757;53.198;19.646;2023-01-29T14:18:34;100377.44;;;-0.11;77.16
70338;BME280;57757;53.198;19.646;2023-01-29T14:21:19;100375.05;;;-0.12;77.09
70338;BME280;57757;53.198;19.646;2023-01-29T14:23:50;100376.59;;;-0.11;77.14
70338;BME280;57757;53.198;19.646;2023-01-29T14:37:31;100374.98;;;-0.07;77.16
70338;BME280;57757;53.198;19.646;2023-01-29T14:40:22;100378.95;;;-0.06;77.25
70338;BME280;57757;53.198;19.646;2023-01-29T14:43:18;100387.35;;;-0.05;77.27
70338;BME280;57757;53.198;19.646;2023-01-29T14:45:48;100379.81;;;-0.05;77.13
70338;BME280;57757;53.198;19.646;2023-01-29T14:48:36;100373.33;;;-0.05;77.15
70338;BME280;57757;53.198;19.646;2023-01-29T14:51:08;100368.55;;;-0.05;77.22
70338;BME280;57757;53.198;19.646;2023-01-29T14:54:00;100356.91;;;-0.05;77.26
70338;BME280;57757;53.198;19.646;2023-01-29T14:56:33;100361.71;;;-0.05;77.23
70338;BME280;57757;53.198;19.646;2023-01-29T14:59:19;100357.07;;;-0.06;77.24
70338;BME280;57757;53.198;19.646;2023-01-29T15:01:54;100364.41;;;-0.06;77.35
70338;BME280;57757;53.198;19.646;2023-01-29T15:04:25;100370.70;;;-0.07;77.18
70338;BME280;57757;53.198;19.646;2023-01-29T15:07:00;100371.16;;;-0.10;77.37
70338;BME280;57757;53.198;19.646;2023-01-29T15:09:48;100368.71;;;-0.12;77.41
70338;BME280;57757;53.198;19.646;2023-01-29T15:18:17;100367.93;;;-0.17;77.56
70338;BME280;57757;53.198;19.646;2023-01-29T15:20:47;100367.88;;;-0.18;77.56
70338;BME280;57757;53.198;19.646;2023-01-29T15:23:31;100375.41;;;-0.19;77.58
70338;BME280;57757;53.198;19.646;2023-01-29T15:26:01;100368.20;;;-0.20;77.63
70338;BME280;57757;53.198;19.646;2023-01-29T15:28:33;100379.83;;;-0.20;77.63
70338;BME280;57757;53.198;19.646;2023-01-29T15:31:03;100377.06;;;-0.21;77.55
70338;BME280;57757;53.198;19.646;2023-01-29T15:33:33;100380.63;;;-0.22;77.73
70338;BME280;57757;53.198;19.646;2023-01-29T15:36:05;100381.48;;;-0.22;77.75
70338;BME280;57757;53.198;19.646;2023-01-29T15:38:34;100386.45;;;-0.21;77.73
70338;BME280;57757;53.198;19.646;2023-01-29T15:41:19;100385.91;;;-0.22;77.77
70338;BME280;57757;53.198;19.646;2023-01-29T15:43:49;100387.31;;;-0.21;77.75